createdAt,value
2016-05-17T00:00:10.484Z,8.46
2016-05-17T00:01:10.347Z,8.49
2016-05-17T00:02:10.521Z,8.36
2016-05-17T00:03:10.539Z,8.38
2016-05-17T00:04:10.558Z,8.38
2016-05-17T00:05:10.591Z,8.37
2016-05-17T00:06:10.578Z,8.42
2016-05-17T00:07:10.878Z,8.44
2016-05-17T00:08:10.615Z,8.38
2016-05-17T00:09:10.633Z,8.3
2016-05-17T00:10:10.652Z,8.41
2016-05-17T00:11:10.670Z,8.41
2016-05-17T00:12:10.689Z,8.34
2016-05-17T00:13:10.707Z,8.33
2016-05-17T00:14:10.725Z,8.36
2016-05-17T00:15:10.712Z,8.33
2016-05-17T00:16:10.730Z,8.34
2016-05-17T00:17:10.749Z,8.3
2016-05-17T00:18:10.767Z,8.37
2016-05-17T00:19:10.614Z,8.37
2016-05-17T00:20:10.788Z,8.33
2016-05-17T00:21:10.822Z,8.42
2016-05-17T00:22:11.075Z,8.36
2016-05-17T00:23:10.843Z,8.36
2016-05-17T00:24:10.877Z,8.33
2016-05-17T00:25:10.739Z,8.41
2016-05-17T00:26:10.742Z,8.34
2016-05-17T00:27:10.917Z,8.36
2016-05-17T00:28:10.763Z,8.51
2016-05-17T00:29:10.937Z,8.45
2016-05-17T00:30:10.800Z,8.45
2016-05-17T00:31:10.817Z,8.49
2016-05-17T00:32:10.837Z,8.46
2016-05-17T00:33:10.995Z,8.41
2016-05-17T00:34:11.013Z,8.51
2016-05-17T00:35:11.031Z,8.45
2016-05-17T00:36:11.066Z,8.45
2016-05-17T00:37:10.912Z,8.61
2016-05-17T00:38:11.072Z,8.53
2016-05-17T00:39:11.120Z,8.64
2016-05-17T00:40:11.108Z,8.56
2016-05-17T00:41:11.125Z,8.61
2016-05-17T00:42:11.144Z,8.55
2016-05-17T00:43:11.147Z,8.58
2016-05-17T00:44:11.150Z,8.49
2016-05-17T00:45:11.200Z,8.58
2016-05-17T00:46:11.186Z,8.51
2016-05-17T00:47:11.221Z,8.56
2016-05-17T00:48:11.224Z,8.6
2016-05-17T00:49:11.257Z,8.56
2016-05-17T00:50:11.103Z,8.58
2016-05-17T00:51:11.277Z,8.52
2016-05-17T00:52:11.312Z,8.58
2016-05-17T00:53:11.299Z,8.6
2016-05-17T00:54:11.004Z,8.46
2016-05-17T00:55:11.179Z,8.56
2016-05-17T00:56:11.198Z,8.51
2016-05-17T00:57:11.372Z,8.44
2016-05-17T00:58:11.390Z,8.51
2016-05-17T00:59:11.409Z,8.53
2016-05-17T01:00:11.396Z,8.48
2016-05-17T01:01:11.274Z,8.56
2016-05-17T01:02:11.448Z,8.55
2016-05-17T01:03:11.295Z,8.61
2016-05-17T01:04:11.453Z,8.58
2016-05-17T01:05:11.472Z,8.55
2016-05-17T01:06:11.489Z,8.55
2016-05-17T01:07:11.353Z,8.69
2016-05-17T01:08:11.527Z,8.55
2016-05-17T01:09:11.576Z,8.58
2016-05-17T01:10:11.564Z,8.55
2016-05-17T01:11:11.581Z,8.55
2016-05-17T01:12:11.600Z,8.61
2016-05-17T01:13:11.462Z,8.6
2016-05-17T01:14:11.636Z,8.56
2016-05-17T01:15:11.639Z,8.6
2016-05-17T01:16:11.658Z,8.52
2016-05-17T01:17:11.677Z,8.61
2016-05-17T01:18:11.679Z,8.53
2016-05-17T01:19:11.697Z,8.63
2016-05-17T01:20:11.716Z,8.66
2016-05-17T01:21:11.577Z,8.56
2016-05-17T01:22:11.627Z,8.58
2016-05-17T01:23:11.770Z,8.64
2016-05-17T01:24:11.773Z,8.61
2016-05-17T01:25:11.635Z,8.6
2016-05-17T01:26:11.638Z,8.67
2016-05-17T01:27:11.828Z,8.66
2016-05-17T01:28:11.815Z,8.7
2016-05-17T01:29:11.848Z,8.71
2016-05-17T01:30:11.711Z,8.69
2016-05-17T01:31:11.870Z,8.64
2016-05-17T01:32:11.887Z,8.71
2016-05-17T01:33:11.907Z,8.66
2016-05-17T01:34:11.909Z,8.74
2016-05-17T01:35:11.959Z,8.7
2016-05-17T01:36:11.962Z,8.7
2016-05-17T01:37:11.980Z,8.67
2016-05-17T01:38:11.670Z,8.61
2016-05-17T01:39:12.016Z,8.58
2016-05-17T01:40:12.019Z,8.69
2016-05-17T01:41:12.022Z,8.78
2016-05-17T01:42:12.056Z,8.76
2016-05-17T01:43:12.058Z,8.76
2016-05-17T01:44:12.092Z,8.69
2016-05-17T01:45:12.094Z,8.73
2016-05-17T01:46:12.113Z,8.69
2016-05-17T01:47:12.132Z,8.71
2016-05-17T01:48:12.134Z,8.69
2016-05-17T01:49:12.169Z,8.71
2016-05-17T01:50:12.171Z,8.71
2016-05-17T01:51:12.174Z,8.84
2016-05-17T01:52:12.614Z,8.81
2016-05-17T01:53:12.054Z,8.87
2016-05-17T01:54:12.229Z,8.84
2016-05-17T01:55:12.231Z,8.87
2016-05-17T01:56:12.265Z,8.74
2016-05-17T01:57:12.284Z,8.74
2016-05-17T01:58:12.302Z,8.87
2016-05-17T01:59:12.304Z,8.78
2016-05-17T02:00:12.338Z,8.78
2016-05-17T02:01:12.341Z,8.76
2016-05-17T02:02:12.343Z,8.71
2016-05-17T02:03:12.221Z,8.76
2016-05-17T02:04:12.239Z,8.7
2016-05-17T02:05:12.227Z,8.71
2016-05-17T02:06:12.417Z,8.76
2016-05-17T02:07:12.748Z,8.85
2016-05-17T02:08:12.485Z,8.74
2016-05-17T02:09:12.347Z,8.76
2016-05-17T02:10:12.475Z,8.74
2016-05-17T02:11:12.337Z,8.7
2016-05-17T02:12:12.527Z,8.66
2016-05-17T02:13:12.358Z,8.71
2016-05-17T02:14:12.548Z,8.7
2016-05-17T02:15:12.550Z,8.69
2016-05-17T02:16:12.663Z,8.73
2016-05-17T02:17:12.447Z,8.67
2016-05-17T02:18:12.668Z,8.69
2016-05-17T02:19:12.687Z,8.76
2016-05-17T02:20:12.673Z,8.7
2016-05-17T02:21:12.723Z,8.66
2016-05-17T02:22:13.038Z,8.58
2016-05-17T02:23:12.791Z,8.61
2016-05-17T02:24:12.794Z,8.63
2016-05-17T02:25:12.796Z,8.64
2016-05-17T02:26:12.783Z,8.66
2016-05-17T02:27:12.786Z,8.61
2016-05-17T02:28:12.820Z,8.69
2016-05-17T02:29:12.807Z,8.64
2016-05-17T02:30:12.810Z,8.67
2016-05-17T02:31:12.813Z,8.71
2016-05-17T02:32:12.674Z,8.7
2016-05-17T02:33:12.521Z,8.74
2016-05-17T02:34:12.789Z,8.66
2016-05-17T02:35:12.745Z,8.66
2016-05-17T02:36:12.763Z,8.66
2016-05-17T02:37:12.923Z,8.56
2016-05-17T02:38:12.784Z,8.7
2016-05-17T02:39:12.975Z,8.6
2016-05-17T02:40:12.634Z,8.48
2016-05-17T02:41:12.948Z,8.49
2016-05-17T02:42:12.951Z,8.58
2016-05-17T02:43:12.969Z,8.61
2016-05-17T02:44:12.831Z,8.51
2016-05-17T02:45:13.022Z,8.55
2016-05-17T02:46:12.884Z,8.53
2016-05-17T02:47:13.044Z,8.55
2016-05-17T02:48:13.061Z,8.55
2016-05-17T02:49:13.079Z,8.63
2016-05-17T02:50:13.097Z,8.6
2016-05-17T02:51:13.101Z,8.61
2016-05-17T02:52:13.478Z,8.55
2016-05-17T02:53:13.122Z,8.56
2016-05-17T02:54:13.140Z,8.58
2016-05-17T02:55:13.158Z,8.58
2016-05-17T02:56:13.177Z,8.67
2016-05-17T02:57:13.038Z,8.66
2016-05-17T02:58:13.041Z,8.61
2016-05-17T02:59:13.060Z,8.63
2016-05-17T03:00:13.079Z,8.6
2016-05-17T03:01:13.268Z,8.55
2016-05-17T03:02:13.271Z,8.61
2016-05-17T03:03:13.132Z,8.53
2016-05-17T03:04:13.276Z,8.61
2016-05-17T03:05:13.154Z,8.49
2016-05-17T03:06:13.328Z,8.56
2016-05-17T03:07:13.347Z,8.6
2016-05-17T03:08:13.209Z,8.53
2016-05-17T03:09:13.242Z,8.56
2016-05-17T03:10:13.386Z,8.55
2016-05-17T03:11:13.420Z,8.67
2016-05-17T03:12:13.267Z,8.53
2016-05-17T03:13:13.456Z,8.64
2016-05-17T03:14:13.287Z,8.53
2016-05-17T03:15:13.477Z,8.58
2016-05-17T03:16:13.497Z,8.53
2016-05-17T03:17:13.342Z,8.58
2016-05-17T03:18:13.517Z,8.61
2016-05-17T03:19:13.505Z,8.61
2016-05-17T03:20:13.538Z,8.53
2016-05-17T03:21:13.399Z,8.58
2016-05-17T03:22:13.433Z,8.61
2016-05-17T03:23:13.577Z,8.56
2016-05-17T03:24:13.439Z,8.6
2016-05-17T03:25:13.613Z,8.73
2016-05-17T03:26:13.679Z,8.63
2016-05-17T03:27:13.838Z,8.61
2016-05-17T03:28:13.716Z,8.69
2016-05-17T03:29:13.718Z,8.63
2016-05-17T03:30:13.549Z,8.67
2016-05-17T03:31:13.567Z,8.67
2016-05-17T03:32:13.727Z,8.64
2016-05-17T03:33:13.746Z,8.64
2016-05-17T03:34:13.748Z,8.71
2016-05-17T03:35:13.766Z,8.61
2016-05-17T03:36:13.768Z,8.74
2016-05-17T03:37:14.678Z,8.58
2016-05-17T03:38:13.836Z,8.58
2016-05-17T03:39:13.840Z,8.56
2016-05-17T03:40:13.873Z,8.58
2016-05-17T03:41:13.860Z,8.6
2016-05-17T03:42:13.722Z,8.63
2016-05-17T03:43:13.897Z,8.61
2016-05-17T03:44:13.931Z,8.61
2016-05-17T03:45:13.949Z,8.66
2016-05-17T03:46:13.952Z,8.61
2016-05-17T03:47:13.969Z,8.55
2016-05-17T03:48:13.817Z,8.61
2016-05-17T03:49:13.991Z,8.69
2016-05-17T03:50:14.008Z,8.53
2016-05-17T03:51:14.012Z,8.64
2016-05-17T03:52:14.014Z,8.63
2016-05-17T03:53:14.064Z,8.71
2016-05-17T03:54:14.066Z,8.63
2016-05-17T03:55:14.101Z,8.73
2016-05-17T03:56:14.088Z,8.64
2016-05-17T03:57:14.107Z,8.67
2016-05-17T03:58:14.124Z,8.71
2016-05-17T03:59:14.143Z,8.71
2016-05-17T04:00:14.146Z,8.71
2016-05-17T04:01:14.163Z,8.7
2016-05-17T04:02:14.182Z,8.6
2016-05-17T04:03:14.215Z,8.74
2016-05-17T04:04:14.204Z,8.84
2016-05-17T04:05:14.222Z,8.74
2016-05-17T04:06:14.256Z,8.73
2016-05-17T04:07:14.259Z,8.74
2016-05-17T04:08:14.292Z,8.81
2016-05-17T04:09:14.295Z,8.74
2016-05-17T04:10:14.297Z,8.74
2016-05-17T04:11:14.347Z,8.91
2016-05-17T04:12:14.334Z,8.88
2016-05-17T04:13:14.196Z,8.87
2016-05-17T04:14:14.370Z,8.89
2016-05-17T04:15:14.389Z,8.85
2016-05-17T04:16:14.392Z,8.94
2016-05-17T04:17:14.253Z,8.88
2016-05-17T04:18:14.272Z,8.91
2016-05-17T04:19:14.493Z,8.99
2016-05-17T04:20:14.465Z,8.91
2016-05-17T04:21:14.156Z,8.94
2016-05-17T04:22:14.502Z,8.91
2016-05-17T04:23:14.505Z,9.02
2016-05-17T04:24:14.507Z,9.02
2016-05-17T04:25:14.541Z,9.03
2016-05-17T04:26:14.543Z,8.91
2016-05-17T04:27:14.562Z,8.99
2016-05-17T04:28:14.424Z,8.97
2016-05-17T04:29:14.614Z,8.97
2016-05-17T04:30:14.460Z,9
2016-05-17T04:31:14.479Z,9.04
2016-05-17T04:32:14.669Z,9.1
2016-05-17T04:33:14.687Z,9.11
2016-05-17T04:34:14.674Z,9.08
2016-05-17T04:35:14.536Z,9.03
2016-05-17T04:36:14.712Z,9.08
2016-05-17T04:37:14.730Z,9.04
2016-05-17T04:38:14.748Z,9.04
2016-05-17T04:39:14.595Z,9.06
2016-05-17T04:40:14.753Z,9.08
2016-05-17T04:41:14.787Z,9.04
2016-05-17T04:42:14.789Z,9.03
2016-05-17T04:43:14.651Z,9.06
2016-05-17T04:44:14.842Z,9.04
2016-05-17T04:45:14.845Z,9.06
2016-05-17T04:46:14.848Z,9.08
2016-05-17T04:47:14.881Z,9.04
2016-05-17T04:48:14.728Z,9.03
2016-05-17T04:49:14.917Z,9.04
2016-05-17T04:50:14.905Z,9.04
2016-05-17T04:51:14.782Z,9.02
2016-05-17T04:52:14.973Z,9.04
2016-05-17T04:53:14.820Z,9
2016-05-17T04:54:14.978Z,9.08
2016-05-17T04:55:14.856Z,9.03
2016-05-17T04:56:15.030Z,9.02
2016-05-17T04:57:14.736Z,9.06
2016-05-17T04:58:15.052Z,9.03
2016-05-17T04:59:14.929Z,9.08
2016-05-17T05:00:15.119Z,9.1
2016-05-17T05:01:15.091Z,9.06
2016-05-17T05:02:15.125Z,9.04
2016-05-17T05:03:15.127Z,9.19
2016-05-17T05:04:15.146Z,9.19
2016-05-17T05:05:14.851Z,9.22
2016-05-17T05:06:15.182Z,9.18
2016-05-17T05:07:15.247Z,9.16
2016-05-17T05:08:15.203Z,9.19
2016-05-17T05:09:15.259Z,9.16
2016-05-17T05:10:15.320Z,9.19
2016-05-17T05:11:15.366Z,9.18
2016-05-17T05:12:15.411Z,9.25
2016-05-17T05:13:15.472Z,9.29
2016-05-17T05:14:15.520Z,9.29
2016-05-17T05:15:15.382Z,9.21
2016-05-17T05:16:15.588Z,9.28
2016-05-17T05:17:15.621Z,9.31
2016-05-17T05:18:15.640Z,9.26
2016-05-17T05:19:15.668Z,9.32
2016-05-17T05:20:15.692Z,9.32
2016-05-17T05:21:15.716Z,9.32
2016-05-17T05:22:15.599Z,9.46
2016-05-17T05:23:15.778Z,9.37
2016-05-17T05:24:15.769Z,9.34
2016-05-17T05:25:15.790Z,9.29
2016-05-17T05:26:15.810Z,9.29
2016-05-17T05:27:15.830Z,9.37
2016-05-17T05:28:15.850Z,9.36
2016-05-17T05:29:15.854Z,9.43
2016-05-17T05:30:15.873Z,9.36
2016-05-17T05:31:15.873Z,9.4
2016-05-17T05:32:15.927Z,9.44
2016-05-17T05:33:15.931Z,9.4
2016-05-17T05:34:15.790Z,9.39
2016-05-17T05:35:15.964Z,9.44
2016-05-17T05:36:15.828Z,9.37
2016-05-17T05:37:16.065Z,9.46
2016-05-17T05:38:15.849Z,9.44
2016-05-17T05:39:16.008Z,9.4
2016-05-17T05:40:16.043Z,9.44
2016-05-17T05:41:16.060Z,9.5
2016-05-17T05:42:16.063Z,9.43
2016-05-17T05:43:16.098Z,9.48
2016-05-17T05:44:16.101Z,9.48
2016-05-17T05:45:15.962Z,9.58
2016-05-17T05:46:16.137Z,9.56
2016-05-17T05:47:16.171Z,9.62
2016-05-17T05:48:16.001Z,9.65
2016-05-17T05:49:16.177Z,9.64
2016-05-17T05:50:15.912Z,9.64
2016-05-17T05:51:16.259Z,9.62
2016-05-17T05:52:16.090Z,9.59
2016-05-17T05:53:16.265Z,9.54
2016-05-17T05:54:16.268Z,9.58
2016-05-17T05:55:16.099Z,9.54
2016-05-17T05:56:16.273Z,9.58
2016-05-17T05:57:16.151Z,9.54
2016-05-17T05:58:16.310Z,9.51
2016-05-17T05:59:16.375Z,9.56
2016-05-17T06:00:16.425Z,9.54
2016-05-17T06:01:16.381Z,9.56
2016-05-17T06:02:16.414Z,9.59
2016-05-17T06:03:16.417Z,9.58
2016-05-17T06:04:16.420Z,9.55
2016-05-17T06:05:16.516Z,9.64
2016-05-17T06:06:16.347Z,9.59
2016-05-17T06:07:16.443Z,9.66
2016-05-17T06:08:16.368Z,9.68
2016-05-17T06:09:16.527Z,9.69
2016-05-17T06:10:16.546Z,9.76
2016-05-17T06:11:16.423Z,9.68
2016-05-17T06:12:16.582Z,9.65
2016-05-17T06:13:16.568Z,9.54
2016-05-17T06:14:16.571Z,9.66
2016-05-17T06:15:16.590Z,9.68
2016-05-17T06:16:16.608Z,9.68
2016-05-17T06:17:16.517Z,9.73
2016-05-17T06:18:16.629Z,9.69
2016-05-17T06:19:16.648Z,9.64
2016-05-17T06:20:16.665Z,9.61
2016-05-17T06:21:16.685Z,9.69
2016-05-17T06:22:16.593Z,9.66
2016-05-17T06:23:16.720Z,9.73
2016-05-17T06:24:16.770Z,9.68
2016-05-17T06:25:16.742Z,9.76
2016-05-17T06:26:16.776Z,9.74
2016-05-17T06:27:16.638Z,9.73
2016-05-17T06:28:16.641Z,9.72
2016-05-17T06:29:16.814Z,9.8
2016-05-17T06:30:16.818Z,9.76
2016-05-17T06:31:16.695Z,9.86
2016-05-17T06:32:16.870Z,9.91
2016-05-17T06:36:16.928Z,9.99
2016-05-17T06:37:16.790Z,10.01
2016-05-17T06:38:16.964Z,10.13
2016-05-17T06:39:16.967Z,10.15
2016-05-17T06:40:16.969Z,10.2
2016-05-17T06:41:17.019Z,10.17
2016-05-17T06:42:17.007Z,10.16
2016-05-17T06:43:17.025Z,10.19
2016-05-17T06:44:16.902Z,10.16
2016-05-17T06:45:17.061Z,10.19
2016-05-17T06:46:17.096Z,10.19
2016-05-17T06:47:17.082Z,10.13
2016-05-17T06:48:17.116Z,10.12
2016-05-17T06:49:17.134Z,10.05
2016-05-17T06:50:17.153Z,10.09
2016-05-17T06:51:17.015Z,10.17
2016-05-17T06:52:17.190Z,10.22
2016-05-17T06:53:17.192Z,10.15
2016-05-17T06:54:17.210Z,10.19
2016-05-17T06:55:17.245Z,10.26
2016-05-17T06:56:17.247Z,10.33
2016-05-17T06:57:16.937Z,10.33
2016-05-17T06:58:17.267Z,10.34
2016-05-17T06:59:17.287Z,10.3
2016-05-17T07:01:17.354Z,10.35
2016-05-17T07:02:17.356Z,10.35
2016-05-17T07:03:17.359Z,10.25
2016-05-17T07:04:17.378Z,10.38
2016-05-17T07:05:17.396Z,10.41
2016-05-17T07:06:17.242Z,10.49
2016-05-17T07:07:17.527Z,10.54
2016-05-17T07:08:17.530Z,10.67
2016-05-17T07:09:17.313Z,10.56
2016-05-17T07:10:17.519Z,10.67
2016-05-17T07:11:17.521Z,10.75
2016-05-17T07:12:17.571Z,10.72
2016-05-17T07:13:17.621Z,10.64
2016-05-17T07:14:17.639Z,10.74
2016-05-17T07:15:17.438Z,10.79
2016-05-17T07:16:17.660Z,10.84
2016-05-17T07:17:17.679Z,10.94
2016-05-17T07:18:17.463Z,10.79
2016-05-17T07:19:17.668Z,10.78
2016-05-17T07:20:17.671Z,11.05
2016-05-17T07:21:17.486Z,11.04
2016-05-17T07:22:17.817Z,11.14
2016-05-17T07:23:17.742Z,11.11
2016-05-17T07:24:17.744Z,11.12
2016-05-17T07:25:17.732Z,11.23
2016-05-17T07:26:17.421Z,11.29
2016-05-17T07:27:17.768Z,11.36
2016-05-17T07:28:17.771Z,11.32
2016-05-17T07:29:17.789Z,11.35
2016-05-17T07:30:17.682Z,11.41
2016-05-17T07:31:17.841Z,11.3
2016-05-17T07:32:17.703Z,11.33
2016-05-17T07:33:17.847Z,11.37
2016-05-17T07:34:17.881Z,11.36
2016-05-17T07:35:17.883Z,11.37
2016-05-17T07:36:17.745Z,11.44
2016-05-17T07:37:18.467Z,11.45
2016-05-17T07:38:17.922Z,11.44
2016-05-17T07:39:17.941Z,11.52
2016-05-17T07:40:17.959Z,11.45
2016-05-17T07:41:17.852Z,11.45
2016-05-17T07:42:17.996Z,11.4
2016-05-17T07:43:18.030Z,11.37
2016-05-17T07:44:17.766Z,11.43
2016-05-17T07:45:18.066Z,11.44
2016-05-17T07:46:18.068Z,11.4
2016-05-17T07:47:17.916Z,11.4
2016-05-17T07:48:18.169Z,11.35
2016-05-17T07:49:18.124Z,11.35
2016-05-17T07:50:17.986Z,11.22
2016-05-17T07:51:18.004Z,11.27
2016-05-17T07:52:18.460Z,11.15
2016-05-17T07:53:18.057Z,11.17
2016-05-17T07:54:18.200Z,11.26
2016-05-17T07:55:18.234Z,11.18
2016-05-17T07:56:18.080Z,11.25
2016-05-17T07:57:18.255Z,11.32
2016-05-17T07:58:18.273Z,11.33
2016-05-17T07:59:18.120Z,11.36
2016-05-17T08:00:18.295Z,11.43
2016-05-17T08:01:18.312Z,11.4
2016-05-17T08:02:18.331Z,11.5
2016-05-17T08:03:18.350Z,11.6
2016-05-17T08:04:18.367Z,11.66
2016-05-17T08:05:18.401Z,11.86
2016-05-17T08:06:18.388Z,11.86
2016-05-17T08:07:18.454Z,11.91
2016-05-17T08:08:18.425Z,12.06
2016-05-17T08:09:18.318Z,12.1
2016-05-17T08:10:18.478Z,12.15
2016-05-17T08:11:18.855Z,12.1
2016-05-17T08:12:18.483Z,12.22
2016-05-17T08:13:18.564Z,12.4
2016-05-17T08:14:18.566Z,12.42
2016-05-17T08:15:18.428Z,12.58
2016-05-17T08:16:18.602Z,12.79
2016-05-17T08:17:18.433Z,12.87
2016-05-17T08:18:18.608Z,13.04
2016-05-17T08:19:18.688Z,13.11
2016-05-17T08:20:18.660Z,13.3
2016-05-17T08:21:18.507Z,13.25
2016-05-17T08:22:19.400Z,13.2
2016-05-17T08:23:18.747Z,13.33
2016-05-17T08:24:18.749Z,13.5
2016-05-17T08:25:18.784Z,13.65
2016-05-17T08:26:18.598Z,13.75
2016-05-17T08:27:18.601Z,13.83
2016-05-17T08:28:18.823Z,13.75
2016-05-17T08:29:18.840Z,13.77
2016-05-17T08:30:18.859Z,13.85
2016-05-17T08:31:18.721Z,13.93
2016-05-17T08:32:18.881Z,13.99
2016-05-17T08:33:18.742Z,13.97
2016-05-17T08:34:18.745Z,14.11
2016-05-17T08:35:18.826Z,14.11
2016-05-17T08:36:18.939Z,14.26
2016-05-17T08:37:18.972Z,14.3
2016-05-17T08:38:18.990Z,14.32
2016-05-17T08:39:18.993Z,14.25
2016-05-17T08:40:18.902Z,14.17
2016-05-17T08:41:18.889Z,14.04
2016-05-17T08:42:19.064Z,14.11
2016-05-17T08:43:19.113Z,14.32
2016-05-17T08:44:19.085Z,14.5
2016-05-17T08:45:19.102Z,14.44
2016-05-17T08:46:18.965Z,14.23
2016-05-17T08:47:19.139Z,14.1
2016-05-17T08:48:19.158Z,14.05
2016-05-17T08:49:19.191Z,14.05
2016-05-17T08:50:19.210Z,14
2016-05-17T08:51:19.228Z,13.97
2016-05-17T08:52:19.262Z,13.87
2016-05-17T08:53:19.249Z,13.75
2016-05-17T08:54:19.299Z,13.86
2016-05-17T08:55:19.146Z,13.96
2016-05-17T08:56:19.320Z,13.9
2016-05-17T08:57:19.338Z,13.85
2016-05-17T08:58:19.201Z,13.95
2016-05-17T08:59:19.390Z,13.97
2016-05-17T09:00:19.393Z,13.96
2016-05-17T09:01:19.240Z,13.87
2016-05-17T09:02:19.429Z,13.81
2016-05-17T09:03:19.292Z,13.72
2016-05-17T09:04:19.481Z,13.68
2016-05-17T09:05:19.484Z,13.71
2016-05-17T09:06:19.519Z,13.62
2016-05-17T09:07:19.802Z,13.68
2016-05-17T09:08:19.555Z,13.67
2016-05-17T09:09:19.402Z,13.54
2016-05-17T09:10:19.576Z,13.56
2016-05-17T09:11:19.579Z,13.59
2016-05-17T09:12:19.597Z,13.6
2016-05-17T09:13:19.631Z,13.62
2016-05-17T09:14:19.540Z,13.72
2016-05-17T09:15:19.700Z,13.74
2016-05-17T09:16:19.546Z,13.83
2016-05-17T09:17:19.720Z,13.74
2016-05-17T09:18:19.582Z,13.67
2016-05-17T09:19:19.741Z,13.72
2016-05-17T09:20:19.774Z,13.71
2016-05-17T09:21:19.480Z,13.68
2016-05-17T09:22:19.702Z,13.74
2016-05-17T09:23:19.924Z,13.97
2016-05-17T09:24:19.880Z,13.99
2016-05-17T09:25:19.882Z,14.1
2016-05-17T09:26:19.776Z,14.1
2016-05-17T09:27:19.982Z,14.03
2016-05-17T09:28:19.968Z,14.12
2016-05-17T09:29:19.924Z,14.17
2016-05-17T09:30:20.005Z,14.23
2016-05-17T09:31:20.007Z,14.4
2016-05-17T09:32:20.010Z,14.54
2016-05-17T09:33:20.029Z,14.53
2016-05-17T09:34:20.063Z,14.55
2016-05-17T09:35:20.065Z,14.32
2016-05-17T09:36:20.068Z,14.45
2016-05-17T09:37:20.087Z,14.41
2016-05-17T09:38:20.089Z,14.48
2016-05-17T09:39:20.108Z,14.62
2016-05-17T09:40:20.157Z,14.53
2016-05-17T09:41:20.175Z,14.65
2016-05-17T09:42:20.069Z,14.5
2016-05-17T09:43:20.072Z,14.4
2016-05-17T09:44:20.089Z,14.36
2016-05-17T09:45:20.077Z,14.36
2016-05-17T09:46:20.297Z,14.33
2016-05-17T09:47:20.300Z,14.17
2016-05-17T09:48:20.288Z,14.32
2016-05-17T09:49:20.305Z,14.33
2016-05-17T09:50:20.340Z,14.28
2016-05-17T09:51:20.358Z,14.35
2016-05-17T09:52:20.252Z,14.48
2016-05-17T09:53:20.396Z,14.73
2016-05-17T09:54:20.399Z,14.79
2016-05-17T09:55:20.431Z,14.73
2016-05-17T09:56:20.294Z,14.86
2016-05-17T09:57:20.453Z,14.88
2016-05-17T09:58:20.330Z,14.84
2016-05-17T09:59:20.505Z,14.86
2016-05-17T10:00:20.523Z,15.11
2016-05-17T10:01:20.542Z,15.25
2016-05-17T10:02:20.560Z,15.28
2016-05-17T10:03:20.265Z,15.36
2016-05-17T10:04:20.440Z,15.44
2016-05-17T10:05:20.631Z,15.61
2016-05-17T10:06:20.476Z,15.72
2016-05-17T10:07:20.667Z,15.72
2016-05-17T10:08:20.701Z,15.84
2016-05-17T10:09:20.548Z,15.97
2016-05-17T10:10:20.722Z,16.31
2016-05-17T10:11:20.740Z,16.53
2016-05-17T10:12:20.758Z,16.49
2016-05-17T10:13:20.778Z,16.47
2016-05-17T10:14:20.842Z,16.41
2016-05-17T10:15:20.845Z,16.53
2016-05-17T10:16:20.692Z,16.39
2016-05-17T10:17:20.850Z,16.57
2016-05-17T10:18:20.884Z,16.58
2016-05-17T10:19:20.731Z,16.6
2016-05-17T10:20:20.968Z,16.6
2016-05-17T10:21:20.971Z,16.71
2016-05-17T10:22:21.145Z,16.78
2016-05-17T10:23:20.866Z,16.72
2016-05-17T10:24:21.072Z,16.64
2016-05-17T10:25:21.074Z,16.6
2016-05-17T10:26:20.875Z,16.57
2016-05-17T10:27:21.112Z,16.42
2016-05-17T10:28:20.957Z,16.38
2016-05-17T10:29:20.977Z,16.28
2016-05-17T10:30:20.854Z,16.28
2016-05-17T10:31:21.168Z,16.36
2016-05-17T10:32:21.157Z,16.56
2016-05-17T10:33:21.174Z,16.65
2016-05-17T10:34:21.193Z,16.49
2016-05-17T10:35:21.212Z,16.58
2016-05-17T10:36:21.245Z,16.57
2016-05-17T10:37:21.669Z,16.61
2016-05-17T10:38:21.282Z,16.69
2016-05-17T10:39:21.315Z,16.75
2016-05-17T10:40:21.334Z,16.86
2016-05-17T10:41:21.353Z,16.93
2016-05-17T10:42:21.387Z,16.89
2016-05-17T10:43:21.389Z,16.78
2016-05-17T10:44:21.408Z,16.72
2016-05-17T10:45:21.426Z,16.6
2016-05-17T10:46:21.428Z,16.56
2016-05-17T10:47:21.306Z,16.56
2016-05-17T10:48:21.481Z,16.6
2016-05-17T10:49:21.514Z,16.57
2016-05-17T10:50:21.377Z,16.61
2016-05-17T10:51:21.567Z,16.69
2016-05-17T10:52:21.586Z,16.84
2016-05-17T10:53:21.432Z,16.94
2016-05-17T10:54:21.622Z,16.93
2016-05-17T10:55:21.624Z,16.72
2016-05-17T10:56:21.643Z,16.5
2016-05-17T10:57:21.661Z,16.32
2016-05-17T10:58:21.695Z,16.16
2016-05-17T10:59:21.713Z,16.33
2016-05-17T11:00:21.576Z,16.36
2016-05-17T11:01:21.750Z,16.33
2016-05-17T11:02:21.784Z,16.24
2016-05-17T11:03:21.787Z,16.24
2016-05-17T11:04:21.664Z,16.28
2016-05-17T11:05:21.839Z,16.29
2016-05-17T11:06:21.873Z,16.38
2016-05-17T11:07:22.578Z,16.38
2016-05-17T11:08:21.893Z,16.33
2016-05-17T11:09:21.943Z,16.24
2016-05-17T11:10:21.962Z,16.13
2016-05-17T11:11:21.948Z,16.08
2016-05-17T11:12:21.983Z,16.16
2016-05-17T11:13:22.000Z,16.26
2016-05-17T11:14:22.034Z,16.15
2016-05-17T11:15:22.116Z,16.21
2016-05-17T11:16:22.118Z,16.31
2016-05-17T11:17:21.949Z,16.39
2016-05-17T11:18:22.139Z,16.41
2016-05-17T11:19:22.220Z,16.64
2016-05-17T11:20:22.005Z,16.84
2016-05-17T11:21:22.226Z,17.09
2016-05-17T11:22:22.415Z,17.16
2016-05-17T11:23:22.246Z,17.14
2016-05-17T11:24:22.250Z,17.23
2016-05-17T11:25:22.283Z,17.15
2016-05-17T11:26:22.286Z,17.26
2016-05-17T11:27:22.289Z,17.33
2016-05-17T11:28:22.322Z,17.45
2016-05-17T11:29:22.325Z,17.52
2016-05-17T11:30:22.187Z,17.6
2016-05-17T11:31:22.362Z,17.78
2016-05-17T11:32:22.380Z,17.89
2016-05-17T11:33:22.415Z,17.78
2016-05-17T11:34:22.417Z,17.8
2016-05-17T11:35:22.451Z,17.79
2016-05-17T11:36:22.454Z,17.57
2016-05-17T11:37:22.425Z,17.67
2016-05-17T11:38:22.520Z,17.65
2016-05-17T11:39:22.556Z,17.76
2016-05-17T11:40:22.542Z,17.74
2016-05-17T11:41:22.420Z,17.67
2016-05-17T11:42:22.610Z,17.44
2016-05-17T11:43:22.612Z,17.45
2016-05-17T11:44:22.631Z,17.41
2016-05-17T11:45:22.649Z,17.19
2016-05-17T11:46:22.667Z,17.24
2016-05-17T11:47:22.389Z,17.27
2016-05-17T11:48:22.705Z,17.26
2016-05-17T11:49:22.582Z,17.33
2016-05-17T11:50:22.616Z,17.42
2016-05-17T11:51:22.775Z,17.39
2016-05-17T11:52:22.652Z,17.23
2016-05-17T11:53:22.843Z,17.15
2016-05-17T11:54:22.861Z,17.19
2016-05-17T11:55:22.879Z,17.26
2016-05-17T11:56:22.882Z,17.41
2016-05-17T11:57:22.900Z,17.36
2016-05-17T11:58:22.934Z,17.29
2016-05-17T11:59:22.953Z,17.3
2016-05-17T12:00:22.941Z,17.34
2016-05-17T12:01:22.973Z,17.36
2016-05-17T12:02:22.992Z,17.42
2016-05-17T12:03:22.870Z,17.48
2016-05-17T12:04:23.091Z,17.51
2016-05-17T12:05:23.093Z,17.59
2016-05-17T12:06:23.097Z,17.63
2016-05-17T12:07:23.146Z,17.72
2016-05-17T12:08:23.148Z,17.63
2016-05-17T12:09:23.214Z,17.41
2016-05-17T12:10:23.217Z,17.45
2016-05-17T12:11:23.031Z,17.42
2016-05-17T12:12:23.253Z,17.33
2016-05-17T12:13:23.256Z,17.26
2016-05-17T12:14:23.150Z,17.19
2016-05-17T12:15:23.105Z,17.02
2016-05-17T12:16:23.326Z,16.93
2016-05-17T12:17:23.189Z,16.83
2016-05-17T12:18:23.378Z,16.76
2016-05-17T12:19:23.381Z,16.79
2016-05-17T12:20:23.369Z,16.86
2016-05-17T12:21:23.294Z,16.75
2016-05-17T12:22:24.421Z,16.87
2016-05-17T12:23:23.439Z,16.79
2016-05-17T12:24:23.457Z,16.72
2016-05-17T12:25:23.507Z,16.75
2016-05-17T12:26:23.510Z,16.87
2016-05-17T12:27:23.528Z,16.97
2016-05-17T12:28:23.530Z,16.97
2016-05-17T12:29:23.580Z,16.96
2016-05-17T12:30:23.568Z,16.96
2016-05-17T12:31:23.461Z,17.02
2016-05-17T12:32:23.635Z,16.99
2016-05-17T12:33:23.654Z,16.9
2016-05-17T12:34:23.657Z,16.76
2016-05-17T12:35:23.534Z,16.76
2016-05-17T12:36:23.709Z,16.61
2016-05-17T12:37:24.023Z,16.58
2016-05-17T12:38:23.729Z,16.56
2016-05-17T12:39:23.638Z,16.65
2016-05-17T12:40:23.782Z,16.54
2016-05-17T12:41:23.800Z,16.53
2016-05-17T12:42:23.818Z,16.54
2016-05-17T12:43:23.853Z,16.5
2016-05-17T12:44:23.856Z,16.58
2016-05-17T12:45:23.748Z,16.49
2016-05-17T12:46:23.907Z,16.53
2016-05-17T12:47:23.926Z,16.6
2016-05-17T12:48:24.006Z,16.47
2016-05-17T12:49:23.961Z,16.36
2016-05-17T12:50:23.996Z,16.41
2016-05-17T12:51:23.874Z,16.33
2016-05-17T12:52:24.564Z,16.28
2016-05-17T12:53:23.879Z,16.24
2016-05-17T12:54:24.069Z,16.23
2016-05-17T12:55:24.088Z,16.04
2016-05-17T12:56:24.106Z,16.04
2016-05-17T12:57:24.172Z,15.83
2016-05-17T12:58:24.174Z,15.86
2016-05-17T12:59:24.191Z,15.8
2016-05-17T13:00:24.179Z,15.65
2016-05-17T13:01:24.197Z,15.58
2016-05-17T13:02:24.232Z,15.57
2016-05-17T13:03:24.094Z,15.52
2016-05-17T13:04:24.330Z,15.55
2016-05-17T13:05:24.146Z,15.54
2016-05-17T13:06:24.352Z,15.57
2016-05-17T13:07:24.542Z,15.61
2016-05-17T13:08:24.435Z,15.54
2016-05-17T13:09:24.468Z,15.57
2016-05-17T13:10:24.456Z,15.55
2016-05-17T13:11:24.459Z,15.62